Afrodite — CURM3 — position and weather

sailwx.info

Track history (hours):
 
Tides and Currents Weather Stations Pressure Air Temp Water Temp Dewpoint Dewpoint Depression Visibility Wind Speed Wind Dir Waves Ship Positions

Afrodite

Last reported at 2016-Feb-05 21:32 UTC. Time now 2016-Feb-09 20:41 UTC.
Position N 39°21' W 009°22'.

Length 26 m.

Type: Fishing. MMSI: 263500170.

Date/timePositionNaut miles runAvg speedWind from/ knotsBaromVisibWave heightAir tempDewpointWater temp
2016-Feb-05 21:32N 39°21' W 009°22'0 0.0
2016-Feb-05 20:32N 39°21' W 009°22'0 0.0
2016-Feb-05 19:32N 39°21' W 009°22'2 2.4
2016-Feb-05 18:32N 39°22' W 009°25'8 7.8
2016-Feb-05 17:32N 39°28' W 009°31'0 0.1
2016-Feb-05 16:32N 39°28' W 009°31'3 2.5
2016-Feb-05 15:32N 39°26' W 009°33'6 6.4
2016-Feb-05 14:33N 39°23' W 009°26'3 0.2
2016-Feb-04 20:06N 39°21' W 009°22'2 3.5
2016-Feb-04 19:33N 39°22' W 009°24'2 1.1
2016-Feb-04 17:21N 39°24' W 009°22'6 6.6
2016-Feb-04 16:29N 39°24' W 009°29'5 5.0
2016-Feb-04 15:33N 39°28' W 009°30'1 1.4
2016-Feb-04 14:33N 39°28' W 009°32'6 6.0
2016-Feb-04 13:33N 39°23' W 009°27'4 0.1
2016-Feb-02 15:33N 39°21' W 009°22'0 0.0
2016-Feb-02 14:29N 39°21' W 009°22'0 0.0
2016-Feb-01 19:30N 39°21' W 009°22'0 0.0
2016-Feb-01 18:33N 39°21' W 009°22'0 0.0
2016-Feb-01 17:34N 39°21' W 009°22'6 5.6
2016-Feb-01 16:31N 39°24' W 009°29'3 3.1
2016-Feb-01 15:33N 39°26' W 009°32'3 2.9
2016-Feb-01 14:29N 39°25' W 009°28'6 5.8
2016-Feb-01 13:30N 39°21' W 009°22'  
2016-Jan-28 15:05N 39°21' W 009°22'0 0.0
2016-Jan-28 14:33N 39°21' W 009°22'0 0.0
2016-Jan-28 13:33N 39°21' W 009°22'0 0.0
2016-Jan-27 19:33N 39°21' W 009°22'5 4.9
2016-Jan-27 18:32N 39°24' W 009°27'1 1.4
2016-Jan-27 17:32N 39°25' W 009°28'3 3.3
2016-Jan-27 16:33N 39°28' W 009°31'0 0.3
2016-Jan-27 15:33N 39°28' W 009°31'1 0.6
2016-Jan-27 14:30N 39°28' W 009°30'7 7.2
2016-Jan-27 13:33N 39°23' W 009°26'3 3.0
2016-Jan-27 12:30N 39°21' W 009°22'  
Track history (hours):
 
Tides and Currents Weather Stations Pressure Air Temp Water Temp Dewpoint Dewpoint Depression Visibility Wind Speed Wind Dir Waves Ship Positions

Afrodite

Last reported at 2016-Feb-05 21:32 UTC. Time now 2016-Feb-09 20:41 UTC.
Position N 39°21' W 009°22'.

Length 26 m.

Type: Fishing. MMSI: 263500170.

Date/timePositionNaut miles runAvg speedWind from/ knotsBaromVisibWave heightAir tempDewpointWater temp
2016-Feb-05 21:32N 39°21' W 009°22'0 0.0
2016-Feb-05 20:32N 39°21' W 009°22'0 0.0
2016-Feb-05 19:32N 39°21' W 009°22'2 2.4
2016-Feb-05 18:32N 39°22' W 009°25'8 7.8
2016-Feb-05 17:32N 39°28' W 009°31'0 0.1
2016-Feb-05 16:32N 39°28' W 009°31'3 2.5
2016-Feb-05 15:32N 39°26' W 009°33'6 6.4
2016-Feb-05 14:33N 39°23' W 009°26'3 0.2
2016-Feb-04 20:06N 39°21' W 009°22'2 3.5
2016-Feb-04 19:33N 39°22' W 009°24'2 1.1
2016-Feb-04 17:21N 39°24' W 009°22'6 6.6
2016-Feb-04 16:29N 39°24' W 009°29'5 5.0
2016-Feb-04 15:33N 39°28' W 009°30'1 1.4
2016-Feb-04 14:33N 39°28' W 009°32'6 6.0
2016-Feb-04 13:33N 39°23' W 009°27'4 0.1
2016-Feb-02 15:33N 39°21' W 009°22'0 0.0
2016-Feb-02 14:29N 39°21' W 009°22'0 0.0
2016-Feb-01 19:30N 39°21' W 009°22'0 0.0
2016-Feb-01 18:33N 39°21' W 009°22'0 0.0
2016-Feb-01 17:34N 39°21' W 009°22'6 5.6
2016-Feb-01 16:31N 39°24' W 009°29'3 3.1
2016-Feb-01 15:33N 39°26' W 009°32'3 2.9
2016-Feb-01 14:29N 39°25' W 009°28'6 5.8
2016-Feb-01 13:30N 39°21' W 009°22'  
2016-Jan-28 15:05N 39°21' W 009°22'0 0.0
2016-Jan-28 14:33N 39°21' W 009°22'0 0.0
2016-Jan-28 13:33N 39°21' W 009°22'0 0.0
2016-Jan-27 19:33N 39°21' W 009°22'5 4.9
2016-Jan-27 18:32N 39°24' W 009°27'1 1.4
2016-Jan-27 17:32N 39°25' W 009°28'3 3.3
2016-Jan-27 16:33N 39°28' W 009°31'0 0.3
2016-Jan-27 15:33N 39°28' W 009°31'1 0.6
2016-Jan-27 14:30N 39°28' W 009°30'7 7.2
2016-Jan-27 13:33N 39°23' W 009°26'3 3.0
2016-Jan-27 12:30N 39°21' W 009°22'  

Dump ship's entire track history